Time;durP1;ratioP1;P1;durP2;ratioP2;P2;SDS_P1;SDS_P2;PMS_P1;PMS_P2;Temp;Humidity;BMP_temperature;BMP_pressure;BME280_temperature;BME280_humidity;BME280_pressure;Samples;Min_cycle;Max_cycle;Signal;HPM_P1;HPM_P2
2021/05/14 00:01:09;;;;;;;2.70;0.90;;;11.30;68.50;;;;;;5026192;28;20041;-64
2021/05/14 00:03:37;;;;;;;1.45;0.98;;;11.30;68.80;;;;;;5028739;28;20021;-64
2021/05/14 00:06:05;;;;;;;2.65;1.10;;;11.30;68.70;;;;;;5028500;28;20396;-64
2021/05/14 00:08:31;;;;;;;2.03;1.10;;;11.30;68.70;;;;;;5028239;28;20963;-65
2021/05/14 00:10:58;;;;;;;1.20;1.10;;;11.20;68.70;;;;;;5027757;28;20049;-65
2021/05/14 00:13:29;;;;;;;4.18;1.05;;;11.20;68.70;;;;;;5027085;28;20037;-64
2021/05/14 00:15:57;;;;;;;2.00;1.23;;;11.20;68.80;;;;;;5030347;28;20124;-64
2021/05/14 00:18:26;;;;;;;1.70;1.10;;;11.10;68.80;;;;;;5035055;28;20038;-65
2021/05/14 00:20:56;;;;;;;1.35;1.08;;;11.10;68.90;;;;;;5036979;28;20508;-65
2021/05/14 00:23:24;;;;;;;3.80;1.40;;;11.10;69.00;;;;;;5031578;28;20045;-64
2021/05/14 00:25:49;;;;;;;1.10;1.00;;;11.10;69.00;;;;;;5031400;28;20029;-64
2021/05/14 00:28:20;;;;;;;1.48;1.05;;;11.10;69.00;;;;;;5032364;28;20398;-64
2021/05/14 00:30:48;;;;;;;3.25;1.20;;;11.10;69.00;;;;;;5029178;28;20075;-64
2021/05/14 00:33:18;;;;;;;1.40;0.93;;;11.10;69.80;;;;;;5025053;28;20030;-64
2021/05/14 00:35:48;;;;;;;2.65;1.10;;;11.00;69.60;;;;;;5027281;28;20501;-64
2021/05/14 00:38:16;;;;;;;1.65;0.90;;;11.00;68.70;;;;;;5027118;28;20030;-64
2021/05/14 00:40:47;;;;;;;1.40;1.10;;;11.00;68.80;;;;;;5025343;28;20048;-64
2021/05/14 00:43:17;;;;;;;1.67;0.90;;;10.90;69.00;;;;;;5025798;28;20034;-64
2021/05/14 00:45:45;;;;;;;1.65;1.20;;;10.90;69.00;;;;;;5029357;28;20033;-64
2021/05/14 00:48:13;;;;;;;0.90;0.90;;;10.90;69.00;;;;;;5032800;28;20045;-64
2021/05/14 00:50:39;;;;;;;1.42;1.17;;;10.90;69.00;;;;;;5030015;28;20036;-64
2021/05/14 00:53:09;;;;;;;2.33;1.02;;;10.90;69.10;;;;;;5033143;28;20091;-64
2021/05/14 00:55:36;;;;;;;1.38;0.80;;;10.80;69.10;;;;;;5033676;28;20040;-64
2021/05/14 00:58:07;;;;;;;1.27;1.05;;;10.80;69.10;;;;;;5028675;28;20765;-63
2021/05/14 01:00:35;;;;;;;1.40;0.90;;;10.80;69.30;;;;;;5027657;28;20037;-64
2021/05/14 01:03:06;;;;;;;2.30;1.10;;;10.80;69.20;;;;;;5028274;28;20030;-64
2021/05/14 01:05:34;;;;;;;0.90;0.90;;;10.80;69.10;;;;;;5034283;28;20033;-64
2021/05/14 01:08:02;;;;;;;0.77;0.77;;;10.70;69.00;;;;;;5037889;28;20044;-64
2021/05/14 01:10:28;;;;;;;1.17;1.02;;;10.70;69.00;;;;;;5033126;28;20153;-65
2021/05/14 01:13:00;;;;;;;2.22;1.13;;;10.60;68.80;;;;;;5036584;28;20579;-64
2021/05/14 01:15:31;;;;;;;1.58;1.00;;;10.60;68.90;;;;;;5033028;28;20041;-64
2021/05/14 01:17:58;;;;;;;1.77;0.98;;;10.50;68.90;;;;;;5033946;28;20109;-65
2021/05/14 01:20:32;;;;;;;0.85;0.82;;;10.40;69.00;;;;;;5038042;28;20053;-62
2021/05/14 01:23:03;;;;;;;1.93;1.20;;;10.30;69.20;;;;;;5034770;28;20396;-65
2021/05/14 01:25:33;;;;;;;1.38;1.05;;;10.30;69.50;;;;;;5032102;28;20044;-64
2021/05/14 01:28:01;;;;;;;1.58;1.30;;;10.20;69.70;;;;;;5032956;28;20049;-64
2021/05/14 01:30:28;;;;;;;3.15;0.95;;;10.20;70.60;;;;;;5034038;28;20050;-64
2021/05/14 01:32:59;;;;;;;1.10;1.00;;;10.20;69.90;;;;;;5034955;28;20496;-64
2021/05/14 01:35:31;;;;;;;1.00;0.90;;;10.20;70.00;;;;;;5032528;28;20784;-65
2021/05/14 01:37:59;;;;;;;1.98;0.90;;;10.20;70.00;;;;;;5031435;28;20060;-65
2021/05/14 01:40:33;;;;;;;2.60;0.98;;;10.20;70.00;;;;;;5038797;28;20064;-64
2021/05/14 01:43:01;;;;;;;1.00;0.85;;;10.10;69.90;;;;;;5027935;28;20025;-64
2021/05/14 01:45:29;;;;;;;2.45;1.00;;;10.10;69.90;;;;;;5034041;28;20597;-65
2021/05/14 01:47:56;;;;;;;1.63;0.95;;;10.10;69.80;;;;;;5032199;28;20052;-64
2021/05/14 01:50:26;;;;;;;1.20;0.90;;;10.00;69.60;;;;;;5031234;28;20108;-64
2021/05/14 01:52:57;;;;;;;1.10;0.93;;;10.00;69.80;;;;;;5034608;28;20061;-64
2021/05/14 01:55:27;;;;;;;0.82;0.80;;;9.90;69.80;;;;;;5036605;28;20388;-64
2021/05/14 01:57:57;;;;;;;1.40;0.80;;;9.80;69.90;;;;;;5030950;28;20500;-64
2021/05/14 02:00:25;;;;;;;1.65;0.95;;;9.80;70.10;;;;;;5037587;28;20045;-64
2021/05/14 02:02:53;;;;;;;0.80;0.70;;;9.80;70.40;;;;;;5029072;28;20108;-64
2021/05/14 02:05:23;;;;;;;1.08;0.80;;;9.70;70.40;;;;;;5029839;28;20029;-64
2021/05/14 02:07:49;;;;;;;1.52;1.00;;;9.70;70.60;;;;;;5031231;28;20037;-65
2021/05/14 02:10:15;;;;;;;1.30;1.00;;;9.70;70.90;;;;;;5028426;28;20068;-64
2021/05/14 02:12:46;;;;;;;2.95;1.20;;;9.70;71.10;;;;;;5027056;28;20033;-64
2021/05/14 02:15:14;;;;;;;1.60;1.20;;;9.60;71.30;;;;;;5026553;28;20049;-64
2021/05/14 02:17:47;;;;;;;2.15;1.20;;;9.70;71.50;;;;;;5028295;28;20401;-65
2021/05/14 02:20:17;;;;;;;1.60;1.23;;;9.60;71.50;;;;;;5032582;28;20497;-64
2021/05/14 02:22:45;;;;;;;2.60;1.30;;;9.60;71.60;;;;;;5033728;28;20098;-65
2021/05/14 02:25:15;;;;;;;1.65;1.13;;;9.70;71.80;;;;;;5031797;28;20390;-65
2021/05/14 02:27:46;;;;;;;1.85;1.40;;;9.60;71.90;;;;;;5034858;28;20033;-64
2021/05/14 02:30:19;;;;;;;1.50;1.38;;;9.70;72.10;;;;;;5030829;28;20029;-65
2021/05/14 02:32:49;;;;;;;1.38;1.27;;;9.60;72.10;;;;;;5034149;28;20041;-65
2021/05/14 02:35:18;;;;;;;2.28;1.48;;;9.70;72.20;;;;;;5027843;28;20033;-64
2021/05/14 02:37:46;;;;;;;1.45;1.35;;;9.70;72.30;;;;;;5033641;28;20074;-64
2021/05/14 02:40:13;;;;;;;1.98;1.42;;;9.70;72.30;;;;;;5030814;28;20033;-64
2021/05/14 02:42:41;;;;;;;2.00;1.40;;;9.70;72.30;;;;;;5027183;28;20030;-64
2021/05/14 02:45:11;;;;;;;1.80;1.48;;;9.70;72.30;;;;;;5029557;28;20455;-64
2021/05/14 02:47:41;;;;;;;2.55;1.55;;;9.70;72.50;;;;;;5031681;28;20425;-64
2021/05/14 02:50:10;;;;;;;1.65;1.20;;;9.70;72.60;;;;;;5027629;28;20033;-64
2021/05/14 02:52:37;;;;;;;2.42;1.30;;;9.70;72.50;;;;;;5032354;28;20029;-64
2021/05/14 02:55:06;;;;;;;1.45;1.35;;;9.70;72.60;;;;;;5034435;28;20056;-65
2021/05/14 02:57:35;;;;;;;1.40;1.30;;;9.70;72.60;;;;;;5029902;28;20103;-64
2021/05/14 03:00:01;;;;;;;1.63;1.20;;;9.70;72.50;;;;;;5033162;28;20033;-64
2021/05/14 03:02:31;;;;;;;1.88;1.30;;;9.70;72.50;;;;;;5033363;28;20033;-64
2021/05/14 03:04:59;;;;;;;1.52;1.10;;;9.70;72.50;;;;;;5032167;28;20029;-63
2021/05/14 03:07:27;;;;;;;1.42;1.20;;;9.70;72.30;;;;;;5030582;28;20041;-65
2021/05/14 03:09:52;;;;;;;1.73;1.38;;;9.70;72.10;;;;;;5029474;28;20029;-63
2021/05/14 03:12:22;;;;;;;3.58;1.48;;;9.60;72.00;;;;;;5028520;28;20048;-64
2021/05/14 03:14:55;;;;;;;2.10;1.30;;;9.60;72.10;;;;;;5030550;28;20553;-64
2021/05/14 03:17:23;;;;;;;2.35;1.30;;;9.60;72.10;;;;;;5035212;28;20508;-64
2021/05/14 03:19:50;;;;;;;1.92;1.30;;;9.50;72.00;;;;;;5035950;28;20033;-65
2021/05/14 03:22:19;;;;;;;2.33;1.13;;;9.50;72.10;;;;;;5041686;28;20033;-64
2021/05/14 03:24:46;;;;;;;2.45;1.33;;;9.50;72.10;;;;;;5033543;28;20049;-64
2021/05/14 03:27:14;;;;;;;1.73;1.10;;;9.40;72.00;;;;;;5033539;28;20685;-64
2021/05/14 03:29:44;;;;;;;1.50;1.40;;;9.40;72.10;;;;;;5031466;28;20038;-64
2021/05/14 03:32:10;;;;;;;2.35;0.93;;;9.30;72.10;;;;;;5030696;28;20033;-64
2021/05/14 03:34:40;;;;;;;1.38;1.25;;;9.30;72.30;;;;;;5029341;28;20030;-64
2021/05/14 03:37:09;;;;;;;1.50;1.17;;;9.20;72.30;;;;;;5032138;28;20472;-64
2021/05/14 03:39:44;;;;;;;3.13;1.33;;;9.30;72.50;;;;;;5033369;28;20575;-63
2021/05/14 03:42:17;;;;;;;1.60;1.30;;;9.20;72.60;;;;;;5027630;28;20067;-64
2021/05/14 03:44:45;;;;;;;2.83;1.40;;;9.20;72.60;;;;;;5030586;28;20037;-64
2021/05/14 03:47:17;;;;;;;2.25;1.17;;;9.10;72.60;;;;;;5030029;28;20041;-65
2021/05/14 03:49:43;;;;;;;3.83;1.50;;;9.10;72.70;;;;;;5034337;28;20033;-64
2021/05/14 03:52:14;;;;;;;3.08;1.52;;;9.00;72.60;;;;;;5030284;28;20121;-64
2021/05/14 03:54:42;;;;;;;2.22;1.30;;;9.00;73.00;;;;;;5031297;28;20254;-65
2021/05/14 03:57:14;;;;;;;2.08;1.30;;;9.00;73.00;;;;;;5030996;28;20033;-64
2021/05/14 03:59:46;;;;;;;1.40;1.30;;;8.90;73.00;;;;;;5032532;28;20045;-64
2021/05/14 04:02:16;;;;;;;1.63;1.30;;;8.90;73.00;;;;;;5030831;28;20057;-64
2021/05/14 04:04:44;;;;;;;1.85;1.40;;;8.90;73.00;;;;;;5034153;28;20045;-64
2021/05/14 04:07:12;;;;;;;1.58;1.20;;;8.90;73.00;;;;;;5037358;28;20043;-64
2021/05/14 04:09:48;;;;;;;2.90;1.27;;;8.80;73.00;;;;;;5031617;28;20513;-64
2021/05/14 04:15:07;;;;;;;2.13;1.50;;;8.70;73.40;;;;;;5026465;28;20041;-64
2021/05/14 04:17:35;;;;;;;4.15;2.25;;;8.70;73.50;;;;;;5025615;28;20070;-65
2021/05/14 04:20:03;;;;;;;2.10;1.70;;;8.60;73.50;;;;;;5031314;28;20394;-64
2021/05/14 04:22:31;;;;;;;2.55;1.92;;;8.60;73.50;;;;;;5030863;28;20034;-64
2021/05/14 04:24:57;;;;;;;1.88;1.63;;;8.60;73.70;;;;;;5034327;28;20033;-64
2021/05/14 04:27:23;;;;;;;2.85;1.80;;;8.60;73.70;;;;;;5033227;28;20040;-64
2021/05/14 04:29:54;;;;;;;1.65;1.55;;;8.60;73.80;;;;;;5029019;28;20472;-65
2021/05/14 04:32:19;;;;;;;2.15;1.70;;;8.60;74.00;;;;;;5029748;28;20037;-65
2021/05/14 04:34:48;;;;;;;4.05;1.50;;;8.60;73.80;;;;;;5028348;28;20051;-64
2021/05/14 04:37:20;;;;;;;1.92;1.23;;;8.60;73.80;;;;;;5030385;28;20033;-64
2021/05/14 04:39:48;;;;;;;3.60;1.33;;;8.60;74.10;;;;;;5034859;28;20034;-65
2021/05/14 04:42:16;;;;;;;1.20;1.08;;;8.50;74.20;;;;;;5028755;28;20041;-64
2021/05/14 04:44:42;;;;;;;4.03;1.60;;;8.50;74.20;;;;;;5026871;28;20409;-64
2021/05/14 04:47:08;;;;;;;3.03;1.70;;;8.50;74.40;;;;;;5029126;28;20526;-64
2021/05/14 04:49:38;;;;;;;3.13;2.33;;;8.50;74.50;;;;;;5038479;28;20033;-63
2021/05/14 04:52:17;;;;;;;2.85;2.03;;;8.50;74.70;;;;;;5042220;28;20509;-64
2021/05/14 04:54:43;;;;;;;2.35;1.90;;;8.50;75.10;;;;;;5038133;28;20045;-64
2021/05/14 04:57:14;;;;;;;2.72;2.00;;;8.50;74.80;;;;;;5031945;28;20065;-64
2021/05/14 04:59:43;;;;;;;2.30;2.10;;;8.50;75.20;;;;;;5032029;28;20700;-65
2021/05/14 05:02:12;;;;;;;2.42;1.90;;;8.40;75.30;;;;;;5030700;28;20037;-64
2021/05/14 05:04:38;;;;;;;6.28;2.17;;;8.50;75.50;;;;;;5030567;28;20038;-64
2021/05/14 05:07:07;;;;;;;3.38;2.10;;;8.50;75.60;;;;;;5026025;28;20574;-66
2021/05/14 05:09:35;;;;;;;2.42;2.10;;;8.50;75.80;;;;;;5029537;28;20037;-62
2021/05/14 05:12:01;;;;;;;4.60;2.15;;;8.60;76.10;;;;;;5025011;28;20083;-64
2021/05/14 05:14:32;;;;;;;3.13;2.20;;;8.60;76.00;;;;;;5032306;28;20076;-64
2021/05/14 05:17:00;;;;;;;2.60;2.05;;;8.70;76.20;;;;;;5036771;28;20045;-64
2021/05/14 05:19:30;;;;;;;3.88;1.80;;;8.80;76.10;;;;;;5035307;28;20068;-64
2021/05/14 05:21:58;;;;;;;3.13;1.88;;;8.80;76.10;;;;;;5030362;28;20037;-64
2021/05/14 05:24:26;;;;;;;2.67;1.83;;;8.90;76.10;;;;;;5034177;28;20037;-64
2021/05/14 05:26:56;;;;;;;4.22;1.80;;;9.00;76.10;;;;;;5038918;28;20033;-64
2021/05/14 05:29:27;;;;;;;1.88;1.70;;;9.10;76.10;;;;;;5038279;28;20060;-64
2021/05/14 05:31:59;;;;;;;2.05;1.70;;;9.20;76.10;;;;;;5038517;28;20033;-65
2021/05/14 05:34:25;;;;;;;2.08;1.90;;;9.30;76.20;;;;;;5036314;28;20042;-64
2021/05/14 05:36:53;;;;;;;7.00;2.10;;;9.40;76.30;;;;;;5038296;28;20033;-64
2021/05/14 05:39:22;;;;;;;3.45;2.13;;;9.40;76.10;;;;;;5038243;28;20029;-64
2021/05/14 05:41:53;;;;;;;5.43;2.13;;;9.50;76.10;;;;;;5035425;28;20034;-64
2021/05/14 05:44:25;;;;;;;2.58;1.98;;;9.60;76.00;;;;;;5036814;28;20037;-65
2021/05/14 05:46:53;;;;;;;3.90;1.90;;;9.70;76.00;;;;;;5034249;28;20057;-64
2021/05/14 05:49:21;;;;;;;4.40;1.83;;;9.80;76.00;;;;;;5036697;28;20574;-65
2021/05/14 05:51:49;;;;;;;5.20;2.00;;;9.90;76.80;;;;;;5037739;28;20065;-66
2021/05/14 05:54:14;;;;;;;1.92;1.80;;;10.00;75.80;;;;;;5038143;28;20405;-64
2021/05/14 05:56:47;;;;;;;4.28;1.98;;;10.00;75.60;;;;;;5037872;28;20038;-65
2021/05/14 05:59:16;;;;;;;4.30;1.80;;;10.10;75.80;;;;;;5036535;28;20416;-65
2021/05/14 06:01:49;;;;;;;2.95;1.73;;;10.20;75.80;;;;;;5037397;28;20108;-64
2021/05/14 06:04:14;;;;;;;2.08;1.40;;;10.30;75.90;;;;;;5038310;28;20029;-65
2021/05/14 06:06:42;;;;;;;2.38;1.38;;;10.40;75.50;;;;;;5037589;28;20034;-64
2021/05/14 06:09:10;;;;;;;2.83;1.40;;;10.50;75.30;;;;;;5037447;28;20034;-64
2021/05/14 06:11:40;;;;;;;3.72;1.63;;;10.60;75.30;;;;;;5032649;28;20037;-65
2021/05/14 06:14:08;;;;;;;1.55;1.42;;;10.60;75.10;;;;;;5027794;28;20048;-65
2021/05/14 06:16:36;;;;;;;1.75;1.17;;;10.70;74.90;;;;;;5027983;28;20512;-65
2021/05/14 06:19:08;;;;;;;1.80;1.00;;;10.70;74.60;;;;;;5022413;28;20042;-65
2021/05/14 06:21:43;;;;;;;3.78;1.40;;;10.90;74.50;;;;;;5023787;28;20042;-65
2021/05/14 06:24:09;;;;;;;3.00;1.23;;;10.90;74.40;;;;;;5021661;28;20087;-64
2021/05/14 06:26:39;;;;;;;2.80;1.10;;;11.00;74.40;;;;;;5020290;28;20615;-64
2021/05/14 06:29:10;;;;;;;2.20;1.20;;;11.00;74.30;;;;;;5015986;28;20045;-64
2021/05/14 06:31:36;;;;;;;1.75;1.00;;;11.20;74.20;;;;;;5021142;28;20033;-64
2021/05/14 06:34:04;;;;;;;1.38;1.00;;;11.20;74.00;;;;;;5009164;28;20248;-64
2021/05/14 06:36:30;;;;;;;4.25;1.33;;;11.30;73.90;;;;;;5018049;28;20147;-65
2021/05/14 06:39:02;;;;;;;1.00;0.90;;;11.40;73.70;;;;;;5027848;28;20057;-65
2021/05/14 06:41:30;;;;;;;2.17;1.20;;;11.50;73.20;;;;;;5022916;28;20057;-64
2021/05/14 06:44:03;;;;;;;2.60;1.10;;;11.60;72.90;;;;;;5033118;28;20026;-64
2021/05/14 06:46:33;;;;;;;4.30;1.00;;;11.70;72.70;;;;;;5023047;28;20437;-65
2021/05/14 06:49:02;;;;;;;1.80;0.98;;;11.80;72.00;;;;;;5020182;28;20045;-64
2021/05/14 06:51:30;;;;;;;1.30;0.90;;;11.90;71.80;;;;;;5017326;28;22167;-64
2021/05/14 06:54:00;;;;;;;1.63;0.80;;;12.00;71.60;;;;;;5015926;28;20041;-65
2021/05/14 06:56:30;;;;;;;1.85;0.80;;;12.10;71.20;;;;;;5020765;28;20108;-64
2021/05/14 06:58:59;;;;;;;3.55;1.05;;;12.10;70.90;;;;;;5016336;28;20069;-64
2021/05/14 07:01:25;;;;;;;0.60;0.60;;;12.20;70.70;;;;;;5018343;28;20041;-64
2021/05/14 07:03:53;;;;;;;1.63;0.60;;;12.30;70.60;;;;;;5020736;28;20033;-65
2021/05/14 07:06:21;;;;;;;0.88;0.63;;;12.40;70.50;;;;;;5017069;28;20041;-64
2021/05/14 07:08:54;;;;;;;0.60;0.60;;;12.50;70.50;;;;;;5016745;28;20071;-65
2021/05/14 07:11:22;;;;;;;1.38;0.80;;;12.50;71.00;;;;;;5014883;28;20497;-64
2021/05/14 07:13:48;;;;;;;0.57;0.57;;;12.60;69.70;;;;;;5019900;28;20496;-65
2021/05/14 07:16:13;;;;;;;1.13;0.70;;;12.70;69.70;;;;;;5016356;28;20044;-64
2021/05/14 07:18:41;;;;;;;1.23;0.60;;;12.80;69.60;;;;;;5021129;28;20462;-64
2021/05/14 07:21:07;;;;;;;0.80;0.50;;;12.80;70.20;;;;;;5018390;28;20180;-65
2021/05/14 07:23:33;;;;;;;0.98;0.60;;;12.90;69.40;;;;;;5018866;28;20508;-64
2021/05/14 07:26:03;;;;;;;1.55;0.50;;;13.00;69.00;;;;;;5018661;28;20536;-66
2021/05/14 07:28:31;;;;;;;2.15;0.70;;;13.10;68.50;;;;;;5016773;28;20036;-65
2021/05/14 07:30:59;;;;;;;0.40;0.40;;;13.20;68.50;;;;;;5019441;28;20037;-66
2021/05/14 07:33:30;;;;;;;0.30;0.30;;;13.20;68.30;;;;;;5020829;28;20527;-64
2021/05/14 07:35:57;;;;;;;1.60;0.80;;;13.30;68.30;;;;;;5033869;28;20526;-64
2021/05/14 07:38:25;;;;;;;1.35;0.50;;;13.40;68.20;;;;;;5033606;28;20537;-65
2021/05/14 07:40:51;;;;;;;2.20;0.50;;;13.50;67.60;;;;;;5033110;28;20041;-66
2021/05/14 07:43:16;;;;;;;0.63;0.50;;;13.50;66.80;;;;;;5028673;28;20389;-66
2021/05/14 07:45:46;;;;;;;1.92;0.40;;;13.60;66.70;;;;;;5033801;28;20038;-66
2021/05/14 07:48:20;;;;;;;0.43;0.40;;;13.70;66.00;;;;;;5033386;28;20033;-67
2021/05/14 07:50:49;;;;;;;0.63;0.45;;;13.70;66.10;;;;;;5031189;28;20401;-65
2021/05/14 07:53:19;;;;;;;0.30;0.30;;;13.70;66.10;;;;;;5037171;28;20029;-66
2021/05/14 07:55:47;;;;;;;1.60;0.40;;;13.80;66.20;;;;;;5028637;28;20040;-65
2021/05/14 07:58:15;;;;;;;1.08;0.30;;;13.90;65.80;;;;;;5030721;28;20037;-66
2021/05/14 08:00:43;;;;;;;0.55;0.30;;;14.00;65.90;;;;;;5031377;28;20463;-65
2021/05/14 08:03:12;;;;;;;0.40;0.30;;;14.00;64.90;;;;;;5030923;28;20044;-65
2021/05/14 08:05:46;;;;;;;0.30;0.30;;;14.10;65.30;;;;;;5035029;28;20095;-65
2021/05/14 08:08:19;;;;;;;0.20;0.20;;;14.10;63.80;;;;;;5034092;28;20032;-65
2021/05/14 08:10:47;;;;;;;0.20;0.20;;;14.20;64.50;;;;;;5032006;28;21015;-65
2021/05/14 08:13:17;;;;;;;1.40;0.20;;;14.20;64.00;;;;;;5031085;28;20100;-65
2021/05/14 08:15:46;;;;;;;0.35;0.20;;;14.30;63.30;;;;;;5035116;28;20033;-66
2021/05/14 08:18:17;;;;;;;0.40;0.20;;;14.30;62.00;;;;;;5032283;28;20464;-66
2021/05/14 08:20:50;;;;;;;0.77;0.20;;;14.40;62.40;;;;;;5033771;28;20493;-65
2021/05/14 08:23:19;;;;;;;0.25;0.25;;;14.40;61.00;;;;;;5030254;28;20030;-66
2021/05/14 08:25:45;;;;;;;0.13;0.13;;;14.40;61.90;;;;;;5034101;28;20037;-66
2021/05/14 08:28:12;;;;;;;0.57;0.30;;;14.50;61.10;;;;;;5033659;28;20437;-66
2021/05/14 08:30:40;;;;;;;0.08;0.08;;;14.50;61.10;;;;;;5029844;28;20808;-66
2021/05/14 08:33:06;;;;;;;0.10;0.10;;;14.50;61.00;;;;;;5035549;28;20440;-66
2021/05/14 08:35:38;;;;;;;0.65;0.10;;;14.60;61.10;;;;;;5033536;28;20040;-66
2021/05/14 08:38:11;;;;;;;0.50;0.00;;;14.70;61.10;;;;;;5032327;28;20036;-66
2021/05/14 08:40:40;;;;;;;0.28;0.10;;;14.70;60.20;;;;;;5032800;28;20030;-65
2021/05/14 08:43:13;;;;;;;0.47;0.10;;;14.80;59.80;;;;;;5034277;28;20037;-65
2021/05/14 08:45:42;;;;;;;0.82;0.25;;;14.90;59.80;;;;;;5033010;28;20029;-66
2021/05/14 08:48:16;;;;;;;0.32;0.08;;;15.00;60.00;;;;;;5033083;28;20626;-66
2021/05/14 08:50:46;;;;;;;0.10;0.10;;;15.00;60.00;;;;;;5035717;28;20033;-66
2021/05/14 08:53:17;;;;;;;0.47;0.10;;;15.10;60.40;;;;;;5031290;28;20084;-65
2021/05/14 08:55:44;;;;;;;0.30;0.10;;;15.20;60.60;;;;;;5029208;28;20311;-67
2021/05/14 08:58:15;;;;;;;0.45;0.20;;;15.40;60.50;;;;;;5034279;28;20033;-65
2021/05/14 09:00:43;;;;;;;0.30;0.22;;;15.40;60.10;;;;;;5033429;28;20115;-66
2021/05/14 09:03:11;;;;;;;0.90;0.50;;;15.60;59.40;;;;;;5031185;28;20037;-65
2021/05/14 09:05:40;;;;;;;0.65;0.13;;;15.70;59.60;;;;;;5035949;28;20024;-66
2021/05/14 09:08:12;;;;;;;0.55;0.10;;;15.80;59.20;;;;;;5037473;28;20053;-67
2021/05/14 09:10:43;;;;;;;0.60;0.20;;;15.90;58.80;;;;;;5029480;28;20026;-67
2021/05/14 09:13:16;;;;;;;1.83;0.30;;;15.90;58.80;;;;;;5032878;28;20029;-66
2021/05/14 09:15:46;;;;;;;0.43;0.28;;;16.00;58.10;;;;;;5038371;28;20128;-67
2021/05/14 09:18:21;;;;;;;0.45;0.20;;;16.10;56.80;;;;;;5036666;28;20034;-66
2021/05/14 09:20:54;;;;;;;0.30;0.10;;;16.10;56.20;;;;;;5033127;28;20438;-66
2021/05/14 09:23:30;;;;;;;0.60;0.25;;;16.20;56.80;;;;;;5036492;28;20400;-65
2021/05/14 09:26:01;;;;;;;0.90;0.20;;;16.30;56.90;;;;;;5037414;28;20025;-66
2021/05/14 09:28:41;;;;;;;0.20;0.20;;;16.30;56.50;;;;;;5036978;28;20029;-65
2021/05/14 09:31:12;;;;;;;0.90;0.28;;;16.40;56.40;;;;;;5036696;28;20057;-66
2021/05/14 09:34:01;;;;;;;0.85;0.30;;;16.40;56.20;;;;;;5032360;28;20029;-66
2021/05/14 09:36:34;;;;;;;0.50;0.20;;;16.50;56.10;;;;;;5033463;28;20034;-65
2021/05/14 09:39:11;;;;;;;0.77;0.20;;;16.60;55.70;;;;;;5038334;28;20052;-65
2021/05/14 09:41:43;;;;;;;1.17;0.43;;;16.60;56.20;;;;;;5038758;28;20113;-66
2021/05/14 09:44:24;;;;;;;0.47;0.30;;;16.70;55.40;;;;;;5036793;28;20483;-67
2021/05/14 09:46:57;;;;;;;0.88;0.40;;;16.80;56.20;;;;;;5037734;28;20443;-65
2021/05/14 09:49:28;;;;;;;0.68;0.30;;;16.90;55.00;;;;;;5039351;28;20030;-65
2021/05/14 09:52:03;;;;;;;0.50;0.22;;;17.00;55.50;;;;;;5037655;28;20033;-66
2021/05/14 09:54:41;;;;;;;1.17;0.20;;;17.10;55.50;;;;;;5038217;28;20037;-66
2021/05/14 09:57:33;;;;;;;1.20;0.25;;;17.10;54.20;;;;;;5036405;28;20037;-66
2021/05/14 10:00:03;;;;;;;1.67;0.77;;;17.20;54.50;;;;;;5039092;28;20037;-63
2021/05/14 10:02:33;;;;;;;0.80;0.30;;;17.20;54.40;;;;;;5036040;28;20037;-65
2021/05/14 10:05:04;;;;;;;0.70;0.40;;;17.20;54.40;;;;;;5036540;28;20045;-67
2021/05/14 10:07:34;;;;;;;2.95;0.30;;;17.20;54.10;;;;;;5038113;28;20033;-65
2021/05/14 10:10:01;;;;;;;2.80;0.52;;;17.20;54.90;;;;;;5040419;28;20041;-67
2021/05/14 10:12:31;;;;;;;1.30;0.40;;;17.30;53.80;;;;;;5035717;28;20037;-66
2021/05/14 10:15:03;;;;;;;0.80;0.22;;;17.30;51.30;;;;;;5038635;28;20033;-65
2021/05/14 10:17:34;;;;;;;1.83;0.50;;;17.30;50.70;;;;;;5038524;28;20039;-66
2021/05/14 10:20:04;;;;;;;1.42;0.30;;;17.30;51.60;;;;;;5039963;28;20503;-66
2021/05/14 10:22:35;;;;;;;0.40;0.20;;;17.30;52.50;;;;;;5035333;28;20527;-65
2021/05/14 10:25:04;;;;;;;0.55;0.10;;;17.30;52.70;;;;;;5038857;28;20044;-66
2021/05/14 10:27:44;;;;;;;1.90;0.30;;;17.30;52.70;;;;;;5038225;28;20067;-66
2021/05/14 10:30:14;;;;;;;1.45;0.20;;;17.40;52.20;;;;;;5036157;28;20135;-65
2021/05/14 10:32:46;;;;;;;1.08;0.30;;;17.50;52.80;;;;;;5036463;28;20030;-65
2021/05/14 10:35:19;;;;;;;0.68;0.25;;;17.50;51.50;;;;;;5038996;28;20393;-66
2021/05/14 10:37:49;;;;;;;1.17;0.30;;;17.60;51.30;;;;;;5037917;28;20124;-66
2021/05/14 10:40:32;;;;;;;1.17;0.20;;;17.60;50.40;;;;;;5039023;28;20049;-65
2021/05/14 10:43:01;;;;;;;1.42;0.30;;;17.70;49.90;;;;;;5037237;28;20496;-66
2021/05/14 10:45:39;;;;;;;1.40;0.30;;;17.70;51.40;;;;;;5038097;28;20119;-66
2021/05/14 10:48:22;;;;;;;1.95;0.30;;;17.70;50.20;;;;;;5036225;28;20448;-67
2021/05/14 10:50:59;;;;;;;1.20;0.20;;;17.80;50.90;;;;;;5037498;28;20092;-65
2021/05/14 10:53:51;;;;;;;1.83;0.30;;;17.90;49.50;;;;;;5035882;28;20033;-67
2021/05/14 10:56:16;;;;;;;0.60;0.30;;;18.00;49.30;;;;;;5037338;28;20021;-65
2021/05/14 10:58:45;;;;;;;1.50;0.38;;;18.10;50.00;;;;;;5034166;28;20049;-66
2021/05/14 11:01:31;;;;;;;6.05;0.82;;;18.10;50.30;;;;;;5035988;28;20043;-67
2021/05/14 11:04:01;;;;;;;0.80;0.20;;;18.20;48.70;;;;;;5032470;28;20034;-66
2021/05/14 11:06:39;;;;;;;0.63;0.15;;;18.30;49.00;;;;;;5033506;28;20029;-65
2021/05/14 11:09:09;;;;;;;1.50;0.32;;;18.30;48.60;;;;;;5034720;28;20504;-66
2021/05/14 11:11:52;;;;;;;3.83;0.50;;;18.30;48.00;;;;;;5032623;28;20038;-67
2021/05/14 11:14:23;;;;;;;0.57;0.20;;;18.30;47.90;;;;;;5036474;28;20060;-65
2021/05/14 11:16:55;;;;;;;0.40;0.40;;;18.20;47.80;;;;;;5033522;28;20562;-65
2021/05/14 11:19:27;;;;;;;2.28;0.50;;;18.00;48.10;;;;;;5036937;28;20408;-65
2021/05/14 11:22:14;;;;;;;1.42;0.40;;;17.80;49.00;;;;;;5035369;28;20039;-66
2021/05/14 11:24:53;;;;;;;1.10;0.30;;;17.70;48.50;;;;;;5036958;28;20086;-65
2021/05/14 11:27:28;;;;;;;0.95;0.30;;;17.50;48.60;;;;;;5035053;28;20040;-66
2021/05/14 11:29:57;;;;;;;0.88;0.20;;;17.40;49.90;;;;;;5035416;28;20084;-65
2021/05/14 11:32:33;;;;;;;1.30;0.30;;;17.30;49.90;;;;;;5033458;28;20553;-65
2021/05/14 11:35:31;;;;;;;0.55;0.20;;;17.30;50.30;;;;;;5036226;28;20500;-65
2021/05/14 11:38:01;;;;;;;1.60;0.40;;;17.20;50.20;;;;;;4992325;28;20033;-65
2021/05/14 11:40:38;;;;;;;1.63;0.30;;;17.20;50.10;;;;;;5033151;28;20041;-65
2021/05/14 11:43:09;;;;;;;1.63;0.40;;;17.20;51.40;;;;;;5035153;28;20022;-67
2021/05/14 11:45:44;;;;;;;0.95;0.30;;;17.30;51.20;;;;;;5036163;28;20141;-66
2021/05/14 11:48:18;;;;;;;0.50;0.25;;;17.30;50.60;;;;;;5035753;28;20500;-66
2021/05/14 11:50:53;;;;;;;0.32;0.20;;;17.30;49.90;;;;;;5042370;28;20040;-66
2021/05/14 11:53:19;;;;;;;;;;;17.30;51.20;;;;;;5035095;28;20037;-65
2021/05/14 11:55:51;;;;;;;7.00;1.92;;;17.40;49.10;;;;;;5036134;28;19913;-65
2021/05/14 11:58:21;;;;;;;0.90;0.40;;;17.50;51.10;;;;;;5034815;28;20117;-67
2021/05/14 12:00:57;;;;;;;1.33;0.40;;;17.70;50.50;;;;;;5033680;28;20029;-66
2021/05/14 12:03:28;;;;;;;0.90;0.30;;;17.70;48.90;;;;;;5035607;28;20042;-67
2021/05/14 12:06:09;;;;;;;0.63;0.20;;;17.80;47.20;;;;;;5033575;28;20040;-64
2021/05/14 12:08:35;;;;;;;1.73;0.63;;;17.90;46.90;;;;;;5036191;28;20116;-66
2021/05/14 12:11:10;;;;;;;1.40;0.40;;;17.90;47.30;;;;;;5035206;28;20153;-66
2021/05/14 12:13:40;;;;;;;;;;;18.00;45.00;;;;;;5033607;28;20037;-65
2021/05/14 12:16:09;;;;;;;1.52;0.20;;;18.00;42.80;;;;;;5032955;28;19956;-66
2021/05/14 12:18:46;;;;;;;0.90;0.20;;;18.10;45.30;;;;;;5035291;28;20037;-65
2021/05/14 12:21:29;;;;;;;1.00;0.30;;;18.10;44.30;;;;;;5029898;28;20068;-64
2021/05/14 12:23:57;;;;;;;1.02;0.20;;;18.10;42.90;;;;;;5024297;28;20030;-68
2021/05/14 12:26:27;;;;;;;1.13;0.40;;;18.10;45.30;;;;;;5021197;28;20033;-65
2021/05/14 12:28:55;;;;;;;0.30;0.10;;;18.10;45.10;;;;;;5019564;28;20034;-65
2021/05/14 12:31:32;;;;;;;3.22;0.60;;;18.10;46.90;;;;;;5023721;28;20057;-65
2021/05/14 12:34:04;;;;;;;1.08;0.30;;;18.10;46.80;;;;;;5020152;28;20037;-65
2021/05/14 12:36:33;;;;;;;1.23;0.20;;;18.20;46.10;;;;;;5019603;28;20037;-65
2021/05/14 12:39:22;;;;;;;2.22;0.85;;;18.30;45.50;;;;;;5022984;28;20061;-65
2021/05/14 12:41:59;;;;;;;2.10;0.20;;;18.30;44.30;;;;;;5025200;28;20037;-65
2021/05/14 12:44:27;;;;;;;0.68;0.20;;;18.30;44.60;;;;;;5023797;28;20124;-66
2021/05/14 12:46:56;;;;;;;0.60;0.20;;;18.20;46.40;;;;;;5026682;28;20038;-65
2021/05/14 12:49:24;;;;;;;1.35;0.30;;;18.20;46.30;;;;;;5024459;28;20507;-65
2021/05/14 12:52:15;;;;;;;2.00;0.70;;;18.20;47.00;;;;;;5023913;28;20025;-66
2021/05/14 12:55:03;;;;;;;0.82;0.40;;;18.20;48.00;;;;;;5027967;28;20048;-66
2021/05/14 12:57:52;;;;;;;3.22;0.77;;;18.30;48.60;;;;;;5027120;28;20475;-64
2021/05/14 13:00:25;;;;;;;0.55;0.30;;;18.40;48.10;;;;;;5024161;28;20048;-66
2021/05/14 13:03:00;;;;;;;0.73;0.30;;;18.50;47.70;;;;;;5027899;28;20112;-65
2021/05/14 13:05:44;;;;;;;6.47;1.15;;;18.60;47.70;;;;;;5031507;28;20045;-65
2021/05/14 13:08:11;;;;;;;1.05;0.30;;;18.70;47.90;;;;;;5031537;28;20037;-66
2021/05/14 13:10:44;;;;;;;0.65;0.20;;;18.70;47.90;;;;;;5032577;28;20036;-66